createdAt,value
2022-10-11T00:01:01.185Z,8.30
2022-10-11T00:03:37.060Z,8.13
2022-10-11T00:06:09.318Z,6.90
2022-10-11T00:08:38.171Z,8.55
2022-10-11T00:11:07.819Z,8.88
2022-10-11T00:13:36.014Z,8.10
2022-10-11T00:16:15.588Z,7.75
2022-10-11T00:18:51.459Z,8.27
2022-10-11T00:21:30.688Z,7.03
2022-10-11T00:24:11.842Z,7.30
2022-10-11T00:26:53.152Z,7.85
2022-10-11T00:29:30.948Z,8.60
2022-10-11T00:32:08.706Z,8.02
2022-10-11T00:34:46.823Z,7.75
2022-10-11T00:37:23.566Z,7.18
2022-10-11T00:40:00.376Z,6.53
2022-10-11T00:42:38.871Z,7.25
2022-10-11T00:45:31.173Z,6.10
2022-10-11T00:48:22.649Z,5.70
2022-10-11T00:51:03.056Z,6.20
2022-10-11T00:53:43.956Z,6.97
2022-10-11T00:56:26.200Z,6.25
2022-10-11T00:59:20.536Z,5.90
2022-10-11T01:01:58.364Z,5.93
2022-10-11T01:04:36.560Z,5.82
2022-10-11T01:07:15.461Z,5.72
2022-10-11T01:09:51.689Z,6.18
2022-10-11T01:12:31.063Z,5.70
2022-10-11T01:15:24.465Z,5.38
2022-10-11T01:18:24.995Z,5.40
2022-10-11T01:21:14.380Z,5.97
2022-10-11T01:24:08.769Z,6.10
2022-10-11T01:27:13.095Z,5.50
2022-10-11T01:30:16.933Z,5.43
2022-10-11T01:33:20.198Z,5.57
2022-10-11T01:35:56.635Z,6.05
2022-10-11T01:39:09.690Z,6.22
2022-10-11T01:41:51.781Z,5.72
2022-10-11T01:44:32.309Z,5.65
2022-10-11T01:47:10.352Z,5.97
2022-10-11T01:49:59.982Z,4.50
2022-10-11T01:52:43.243Z,4.53
2022-10-11T01:55:51.166Z,5.00
2022-10-11T01:58:47.358Z,4.90
2022-10-11T02:01:55.108Z,4.88
2022-10-11T02:04:36.171Z,4.30
2022-10-11T02:07:45.608Z,4.38
2022-10-11T02:10:46.200Z,4.65
2022-10-11T02:13:32.976Z,5.25
2022-10-11T02:16:14.564Z,5.55
2022-10-11T02:18:54.724Z,5.13
2022-10-11T02:21:36.370Z,4.88
2022-10-11T02:24:21.796Z,4.43
2022-10-11T02:27:01.287Z,4.75
2022-10-11T02:29:42.498Z,4.22
2022-10-11T02:32:24.051Z,4.80
2022-10-11T02:35:03.070Z,4.95
2022-10-11T02:37:53.011Z,4.50
2022-10-11T02:40:35.419Z,4.65
2022-10-11T02:43:24.183Z,4.07
2022-10-11T02:46:04.239Z,4.70
2022-10-11T02:48:44.279Z,5.05
2022-10-11T02:51:22.173Z,4.55
2022-10-11T02:53:58.609Z,5.40
2022-10-11T02:56:36.398Z,4.60
2022-10-11T02:59:14.591Z,4.20
2022-10-11T03:01:55.371Z,4.47
2022-10-11T03:04:34.669Z,4.53
2022-10-11T03:07:11.614Z,3.75
2022-10-11T03:09:48.297Z,4.32
2022-10-11T03:12:25.741Z,4.30
2022-10-11T03:15:02.516Z,3.97
2022-10-11T03:17:39.056Z,4.13
2022-10-11T03:20:17.036Z,4.38
2022-10-11T03:22:58.416Z,3.63
2022-10-11T03:25:36.793Z,4.55
2022-10-11T03:28:14.906Z,4.18
2022-10-11T03:30:53.195Z,4.95
2022-10-11T03:33:31.222Z,4.30
2022-10-11T03:36:09.576Z,4.45
2022-10-11T03:38:46.340Z,3.75
2022-10-11T03:41:23.526Z,3.85
2022-10-11T03:44:00.752Z,4.43
2022-10-11T03:46:41.555Z,4.75
2022-10-11T03:49:20.428Z,4.28
2022-10-11T03:51:58.588Z,3.67
2022-10-11T03:54:36.819Z,4.22
2022-10-11T03:57:15.981Z,3.97
2022-10-11T03:59:57.869Z,4.00
2022-10-11T04:02:39.095Z,4.35
2022-10-11T04:05:17.134Z,3.60
2022-10-11T04:07:54.512Z,3.97
2022-10-11T04:10:32.603Z,4.55
2022-10-11T04:13:12.428Z,4.40
2022-10-11T04:15:50.356Z,3.95
2022-10-11T04:18:28.492Z,4.40
2022-10-11T04:21:08.980Z,3.72
2022-10-11T04:23:45.263Z,3.92
2022-10-11T04:26:21.796Z,4.15
2022-10-11T04:28:59.916Z,4.60
2022-10-11T04:31:36.767Z,3.83
2022-10-11T04:34:16.979Z,4.40
2022-10-11T04:36:54.357Z,4.75
2022-10-11T04:39:31.193Z,3.92
2022-10-11T04:42:09.526Z,4.50
2022-10-11T04:44:49.630Z,3.95
2022-10-11T04:47:29.009Z,3.70
2022-10-11T04:50:07.342Z,4.47
2022-10-11T04:52:45.152Z,3.90
2022-10-11T04:55:24.269Z,3.88
2022-10-11T04:58:00.987Z,4.60
2022-10-11T05:00:39.739Z,4.00
2022-10-11T05:03:17.874Z,4.40
2022-10-11T05:05:56.049Z,3.58
2022-10-11T05:08:36.773Z,3.55
2022-10-11T05:11:16.837Z,4.95
2022-10-11T05:13:57.928Z,4.35
2022-10-11T05:16:36.208Z,4.40
2022-10-11T05:19:17.658Z,4.40
2022-10-11T05:21:56.047Z,3.80
2022-10-11T05:24:34.836Z,3.85
2022-10-11T05:27:14.959Z,3.72
2022-10-11T05:29:52.665Z,3.88
2022-10-11T05:32:29.528Z,4.22
2022-10-11T05:35:10.430Z,5.43
2022-10-11T05:37:48.960Z,4.25
2022-10-11T05:40:29.345Z,3.72
2022-10-11T05:43:05.942Z,4.07
2022-10-11T05:45:44.732Z,4.60
2022-10-11T05:48:24.242Z,4.45
2022-10-11T05:51:03.431Z,4.22
2022-10-11T05:53:44.381Z,4.90
2022-10-11T05:56:28.016Z,4.60
2022-10-11T05:59:06.296Z,4.22
2022-10-11T06:01:44.021Z,4.00
2022-10-11T06:04:20.781Z,4.00
2022-10-11T06:06:58.120Z,4.65
2022-10-11T06:09:35.756Z,4.35
2022-10-11T06:12:16.033Z,4.22
2022-10-11T06:14:55.600Z,4.20
2022-10-11T06:17:52.945Z,4.78
2022-10-11T06:20:50.524Z,4.65
2022-10-11T06:24:01.156Z,4.95
2022-10-11T06:26:57.247Z,4.15
2022-10-11T06:29:35.360Z,4.13
2022-10-11T06:32:30.944Z,3.78
2022-10-11T06:35:09.007Z,4.50
2022-10-11T06:38:10.379Z,4.80
2022-10-11T06:41:18.104Z,4.60
2022-10-11T06:44:14.927Z,4.40
2022-10-11T06:47:09.443Z,4.20
2022-10-11T06:50:05.644Z,4.13
2022-10-11T06:53:01.690Z,3.70
2022-10-11T06:56:06.168Z,3.70
2022-10-11T06:58:59.884Z,4.10
2022-10-11T07:02:36.868Z,4.20
2022-10-11T07:16:05.531Z,4.28
2022-10-11T07:19:02.067Z,4.82
2022-10-11T07:21:54.524Z,4.82
2022-10-11T07:24:31.773Z,4.70
2022-10-11T07:27:38.456Z,4.97
2022-10-11T07:30:35.830Z,4.38
2022-10-11T07:33:33.025Z,4.45
2022-10-11T07:36:28.106Z,4.50
2022-10-11T07:39:23.169Z,4.85
2022-10-11T07:42:22.537Z,4.70
2022-10-11T07:44:59.116Z,4.70
2022-10-11T07:47:37.958Z,4.45
2022-10-11T07:50:13.944Z,4.68
2022-10-11T07:53:08.349Z,4.70
2022-10-11T07:56:04.482Z,5.35
2022-10-11T07:59:00.366Z,4.82
2022-10-11T08:01:51.568Z,4.88
2022-10-11T08:04:56.215Z,4.80
2022-10-11T08:07:48.845Z,4.53
2022-10-11T08:10:43.341Z,5.00
2022-10-11T08:13:42.278Z,5.18
2022-10-11T08:16:19.061Z,4.87
2022-10-11T08:19:16.098Z,6.18
2022-10-11T08:22:07.794Z,4.80
2022-10-11T08:25:06.830Z,5.07
2022-10-11T08:28:18.046Z,5.05
2022-10-11T08:31:16.939Z,5.03
2022-10-11T08:33:53.476Z,4.72
2022-10-11T08:37:03.220Z,6.05
2022-10-11T08:39:42.330Z,5.30
2022-10-11T08:45:11.952Z,5.25
2022-10-11T08:49:37.424Z,4.75
2022-10-11T08:52:49.910Z,5.50
2022-10-11T08:55:49.263Z,5.65
2022-10-11T08:59:12.776Z,5.70
2022-10-11T09:03:03.106Z,5.75
2022-10-11T09:06:00.258Z,5.47
2022-10-11T09:09:08.110Z,5.03
2022-10-11T09:12:10.082Z,4.65
2022-10-11T09:15:16.075Z,5.25
2022-10-11T09:18:11.217Z,5.25
2022-10-11T09:21:00.605Z,5.07
2022-10-11T09:23:37.637Z,5.35
2022-10-11T09:26:15.146Z,4.47
2022-10-11T09:29:00.923Z,4.55
2022-10-11T09:31:30.543Z,5.18
2022-10-11T09:34:11.851Z,5.20
2022-10-11T09:36:57.844Z,4.88
2022-10-11T09:39:37.087Z,4.63
2022-10-11T09:42:08.177Z,4.78
2022-10-11T09:44:38.013Z,4.97
2022-10-11T09:47:10.660Z,4.40
2022-10-11T09:49:50.785Z,4.45
2022-10-11T09:52:22.671Z,4.72
2022-10-11T09:55:00.639Z,4.90
2022-10-11T09:57:35.056Z,4.57
2022-10-11T10:00:12.527Z,5.10
2022-10-11T10:02:49.432Z,4.88
2022-10-11T10:05:23.512Z,4.13
2022-10-11T10:08:24.004Z,4.10
2022-10-11T10:11:04.690Z,4.00
2022-10-11T10:13:46.680Z,4.32
2022-10-11T10:16:35.256Z,5.43
2022-10-11T10:19:22.028Z,4.47
2022-10-11T10:21:53.163Z,4.05
2022-10-11T10:24:38.973Z,4.47
2022-10-11T10:27:24.742Z,4.53
2022-10-11T10:30:02.227Z,4.05
2022-10-11T10:32:34.343Z,3.55
2022-10-11T10:35:32.185Z,3.83
2022-10-11T10:38:26.885Z,3.30
2022-10-11T10:40:58.271Z,3.88
2022-10-11T10:43:28.937Z,3.30
2022-10-11T10:45:59.978Z,3.47
2022-10-11T10:49:41.190Z,3.63
2022-10-11T10:52:10.578Z,3.70
2022-10-11T10:55:19.811Z,3.20
2022-10-11T10:58:25.258Z,3.53
2022-10-11T11:01:09.157Z,4.10
2022-10-11T11:03:52.495Z,2.65
2022-10-11T11:06:34.207Z,3.08
2022-10-11T11:09:31.378Z,3.80
2022-10-11T11:12:06.305Z,4.10
2022-10-11T11:14:59.597Z,3.92
2022-10-11T11:18:07.715Z,3.50
2022-10-11T11:21:00.772Z,2.97
2022-10-11T11:23:39.466Z,3.50
2022-10-11T11:26:16.235Z,3.25
2022-10-11T11:29:06.825Z,3.00
2022-10-11T11:31:38.828Z,2.80
2022-10-11T11:34:10.659Z,3.33
2022-10-11T11:36:49.820Z,3.30
2022-10-11T11:39:25.476Z,3.40
2022-10-11T11:42:07.705Z,4.13
2022-10-11T11:44:49.781Z,3.30
2022-10-11T11:47:22.191Z,3.30
2022-10-11T11:49:58.097Z,3.03
2022-10-11T11:52:35.956Z,2.72
2022-10-11T11:55:13.529Z,3.15
2022-10-11T11:57:53.020Z,3.63
2022-10-11T12:00:25.270Z,3.30
2022-10-11T12:03:03.723Z,3.13
2022-10-11T12:05:36.210Z,2.50
2022-10-11T12:08:23.078Z,2.80
2022-10-11T12:10:51.324Z,2.72
2022-10-11T12:13:34.849Z,3.10
2022-10-11T12:16:19.237Z,2.78
2022-10-11T12:18:56.594Z,2.70
2022-10-11T12:21:38.974Z,2.55
2022-10-11T12:24:10.095Z,3.72
2022-10-11T12:26:46.177Z,2.90
2022-10-11T12:29:18.292Z,2.97
2022-10-11T12:32:11.390Z,2.72
2022-10-11T12:34:44.723Z,3.03
2022-10-11T12:37:18.883Z,2.75
2022-10-11T12:39:58.945Z,2.63
2022-10-11T12:42:35.414Z,2.95
2022-10-11T12:45:12.934Z,2.63
2022-10-11T12:48:09.475Z,3.13
2022-10-11T12:50:37.796Z,2.70
2022-10-11T12:53:30.439Z,3.10
2022-10-11T12:56:13.305Z,2.70
2022-10-11T12:58:46.522Z,2.58
2022-10-11T13:01:19.203Z,3.47
2022-10-11T13:03:50.782Z,3.05
2022-10-11T13:06:20.821Z,2.80
2022-10-11T13:08:54.818Z,3.28
2022-10-11T13:11:32.189Z,2.70
2022-10-11T13:14:19.272Z,2.90
2022-10-11T13:17:02.863Z,3.20
2022-10-11T13:19:33.974Z,3.00
2022-10-11T13:22:06.402Z,2.45
2022-10-11T13:24:37.979Z,2.30
2022-10-11T13:27:10.237Z,2.40
2022-10-11T13:29:45.496Z,2.95
2022-10-11T13:32:22.041Z,2.92
2022-10-11T13:37:28.708Z,2.88
2022-10-11T13:39:57.561Z,2.67
2022-10-11T13:42:32.178Z,3.08
2022-10-11T13:45:01.199Z,2.40
2022-10-11T13:47:31.758Z,2.53
2022-10-11T13:50:24.099Z,2.83
2022-10-11T13:53:09.502Z,2.78
2022-10-11T13:58:16.237Z,2.67
2022-10-11T14:01:17.657Z,2.33
2022-10-11T14:04:12.687Z,2.45
2022-10-11T14:06:47.708Z,2.60
2022-10-11T14:09:22.129Z,2.63
2022-10-11T14:11:51.508Z,2.50
2022-10-11T14:14:34.803Z,2.53
2022-10-11T14:17:17.351Z,2.42
2022-10-11T14:19:48.400Z,2.60
2022-10-11T14:22:18.214Z,2.30
2022-10-11T14:24:49.298Z,2.72
2022-10-11T14:27:22.571Z,2.65
2022-10-11T14:30:19.837Z,2.58
2022-10-11T14:32:42.333Z,2.78
2022-10-11T14:37:46.821Z,2.65
2022-10-11T14:40:18.291Z,2.42
2022-10-11T14:42:46.318Z,2.97
2022-10-11T14:45:14.517Z,3.00
2022-10-11T14:47:43.255Z,2.80
2022-10-11T14:50:31.985Z,2.70
2022-10-11T14:53:01.535Z,2.45
2022-10-11T14:55:31.106Z,2.40
2022-10-11T14:57:59.091Z,3.08
2022-10-11T15:00:29.785Z,3.00
2022-10-11T15:03:00.224Z,2.80
2022-10-11T15:05:33.969Z,2.85
2022-10-11T15:08:04.880Z,2.80
2022-10-11T15:10:41.580Z,2.92
2022-10-11T15:13:09.986Z,3.00
2022-10-11T15:15:41.296Z,2.53
2022-10-11T15:18:21.219Z,2.58
2022-10-11T15:20:49.556Z,2.53
2022-10-11T15:23:17.569Z,2.72
2022-10-11T15:25:45.496Z,2.50
2022-10-11T15:28:31.374Z,2.88
2022-10-11T15:31:00.913Z,2.95
2022-10-11T15:33:29.837Z,3.70
2022-10-11T15:35:57.769Z,3.63
2022-10-11T15:38:25.870Z,2.65
2022-10-11T15:40:54.659Z,2.60
2022-10-11T15:43:25.001Z,2.30
2022-10-11T15:45:54.818Z,2.65
2022-10-11T15:48:26.960Z,2.55
2022-10-11T15:50:56.164Z,2.67
2022-10-11T15:53:28.586Z,3.25
2022-10-11T15:55:59.228Z,2.63
2022-10-11T15:58:38.589Z,2.40
2022-10-11T16:01:09.963Z,2.33
2022-10-11T16:03:38.003Z,2.33
2022-10-11T16:06:06.124Z,2.58
2022-10-11T16:08:35.140Z,2.40
2022-10-11T16:11:04.058Z,2.83
2022-10-11T16:13:32.694Z,2.30
2022-10-11T16:16:02.473Z,2.53
2022-10-11T16:18:35.383Z,2.53
2022-10-11T16:21:10.221Z,2.25
2022-10-11T16:23:39.185Z,2.53
2022-10-11T16:26:09.843Z,2.58
2022-10-11T16:28:38.973Z,2.20
2022-10-11T16:31:13.474Z,2.22
2022-10-11T16:33:47.882Z,2.88
2022-10-11T16:36:40.342Z,2.60
2022-10-11T16:39:18.310Z,2.85
2022-10-11T16:41:47.027Z,2.72
2022-10-11T16:44:17.849Z,2.60
2022-10-11T16:46:49.024Z,2.88
2022-10-11T16:49:18.938Z,2.58
2022-10-11T16:51:47.199Z,2.67
2022-10-11T16:54:20.019Z,2.60
2022-10-11T16:56:50.105Z,3.13
2022-10-11T16:59:20.636Z,3.05
2022-10-11T17:01:49.300Z,3.50
2022-10-11T17:04:17.393Z,3.97
2022-10-11T17:06:45.406Z,5.47
2022-10-11T17:09:14.630Z,6.15
2022-10-11T17:11:43.071Z,6.40
2022-10-11T17:14:13.328Z,5.07
2022-10-11T17:16:42.436Z,4.18
2022-10-11T17:19:17.699Z,4.28
2022-10-11T17:21:47.837Z,6.07
2022-10-11T17:24:15.822Z,6.95
2022-10-11T17:26:43.622Z,13.18
2022-10-11T17:29:16.386Z,9.63
2022-10-11T17:31:48.981Z,12.18
2022-10-11T17:34:18.019Z,13.65
2022-10-11T17:36:46.713Z,16.05
2022-10-11T17:39:17.629Z,19.48
2022-10-11T17:41:48.574Z,20.40
2022-10-11T17:44:18.496Z,17.85
2022-10-11T17:46:48.382Z,15.35
2022-10-11T17:49:16.543Z,11.00
2022-10-11T17:51:44.869Z,11.43
2022-10-11T17:54:13.458Z,9.05
2022-10-11T17:56:42.979Z,8.70
2022-10-11T17:59:16.791Z,8.80
2022-10-11T18:01:45.629Z,8.48
2022-10-11T18:04:16.496Z,7.50
2022-10-11T18:06:46.529Z,6.38
2022-10-11T18:09:17.145Z,7.32
2022-10-11T18:11:46.617Z,6.95
2022-10-11T18:14:15.391Z,6.80
2022-10-11T18:16:43.218Z,6.93
2022-10-11T18:19:12.855Z,6.85
2022-10-11T18:21:42.104Z,7.78
2022-10-11T18:24:16.379Z,7.70
2022-10-11T18:26:47.268Z,7.80
2022-10-11T18:29:15.665Z,7.60
2022-10-11T18:31:43.809Z,8.05
2022-10-11T18:34:15.951Z,7.68
2022-10-11T18:36:46.427Z,7.63
2022-10-11T18:39:19.585Z,7.28
2022-10-11T18:41:48.232Z,8.00
2022-10-11T18:44:16.390Z,7.50
2022-10-11T18:46:45.742Z,7.30
2022-10-11T18:49:15.119Z,7.53
2022-10-11T18:51:46.579Z,7.03
2022-10-11T18:54:18.555Z,7.85
2022-10-11T18:56:49.489Z,7.75
2022-10-11T18:59:20.424Z,8.20
2022-10-11T19:01:54.359Z,6.63
2022-10-11T19:04:23.373Z,7.22
2022-10-11T19:06:53.434Z,6.53
2022-10-11T19:09:26.427Z,6.47
2022-10-11T19:11:56.841Z,5.78
2022-10-11T19:14:28.344Z,7.35
2022-10-11T19:16:57.855Z,7.35
2022-10-11T19:19:32.890Z,7.70
2022-10-11T19:22:03.383Z,8.15
2022-10-11T19:24:34.248Z,8.07
2022-10-11T19:27:03.408Z,7.57
2022-10-11T19:29:32.405Z,7.43
2022-10-11T19:32:01.490Z,7.78
2022-10-11T19:34:31.725Z,7.25
2022-10-11T19:37:01.255Z,11.20
2022-10-11T19:39:30.204Z,11.20
2022-10-11T19:41:58.017Z,8.82
2022-10-11T19:44:26.499Z,11.77
2022-10-11T19:46:54.742Z,9.45
2022-10-11T19:49:25.315Z,8.55
2022-10-11T19:51:55.541Z,7.50
2022-10-11T19:54:24.254Z,7.28
2022-10-11T19:56:54.561Z,9.80
2022-10-11T19:59:22.612Z,7.15
2022-10-11T20:01:55.334Z,7.53
2022-10-11T20:04:50.592Z,8.05
2022-10-11T20:07:11.726Z,8.93
2022-10-11T20:09:39.675Z,8.07
2022-10-11T20:12:08.022Z,8.15
2022-10-11T20:14:36.792Z,7.75
2022-10-11T20:17:05.916Z,7.20
2022-10-11T20:19:36.334Z,7.88
2022-10-11T20:22:07.308Z,7.70
2022-10-11T20:24:35.060Z,8.40
2022-10-11T20:27:05.534Z,8.40
2022-10-11T20:29:34.192Z,8.80
2022-10-11T20:32:02.607Z,8.75
2022-10-11T20:34:31.426Z,8.30
2022-10-11T20:36:59.426Z,8.65
2022-10-11T20:39:27.893Z,7.43
2022-10-11T20:41:55.937Z,7.20
2022-10-11T20:44:23.848Z,7.65
2022-10-11T20:46:52.201Z,9.48
2022-10-11T20:49:20.750Z,8.10
2022-10-11T20:51:49.468Z,8.07
2022-10-11T20:54:17.420Z,7.45
2022-10-11T20:56:45.452Z,7.65
2022-10-11T20:59:13.703Z,8.10
2022-10-11T21:01:41.921Z,7.18
2022-10-11T21:04:17.753Z,7.45
2022-10-11T21:06:46.477Z,6.45
2022-10-11T21:09:16.652Z,6.93
2022-10-11T21:11:46.260Z,6.70
2022-10-11T21:14:15.502Z,7.65
2022-10-11T21:16:44.556Z,7.70
2022-10-11T21:19:15.267Z,7.43
2022-10-11T21:21:45.019Z,7.57
2022-10-11T21:24:14.547Z,7.28
2022-10-11T21:26:42.929Z,7.43
2022-10-11T21:29:10.663Z,7.03
2022-10-11T21:31:40.570Z,7.85
2022-10-11T21:34:08.791Z,7.30
2022-10-11T21:36:36.638Z,7.15
2022-10-11T21:39:05.063Z,6.88
2022-10-11T21:41:34.048Z,6.75
2022-10-11T21:44:02.681Z,7.32
2022-10-11T21:47:01.374Z,6.65
2022-10-11T21:49:20.035Z,6.85
2022-10-11T21:51:47.951Z,7.57
2022-10-11T21:54:15.847Z,7.00
2022-10-11T21:56:43.872Z,6.80
2022-10-11T21:59:12.745Z,6.25
2022-10-11T22:01:41.788Z,6.68
2022-10-11T22:04:10.925Z,6.53
2022-10-11T22:06:39.728Z,6.90
2022-10-11T22:09:08.680Z,6.22
2022-10-11T22:11:37.495Z,6.43
2022-10-11T22:14:08.228Z,6.47
2022-10-11T22:16:36.435Z,6.90
2022-10-11T22:19:04.828Z,6.32
2022-10-11T22:21:33.641Z,6.28
2022-10-11T22:24:02.986Z,7.40
2022-10-11T22:26:35.676Z,6.43
2022-10-11T22:29:03.571Z,6.82
2022-10-11T22:31:32.492Z,6.45
2022-10-11T22:34:01.987Z,6.43
2022-10-11T22:36:30.674Z,6.18
2022-10-11T22:38:59.043Z,6.25
2022-10-11T22:41:27.129Z,5.90
2022-10-11T22:43:54.851Z,6.50
2022-10-11T22:46:22.565Z,6.05
2022-10-11T22:48:50.619Z,7.00
2022-10-11T22:51:19.063Z,6.65
2022-10-11T22:53:46.857Z,6.40
2022-10-11T22:56:15.110Z,7.35
2022-10-11T22:58:42.890Z,6.30
2022-10-11T23:01:13.483Z,5.82
2022-10-11T23:03:50.889Z,6.45
2022-10-11T23:06:21.010Z,6.38
2022-10-11T23:08:49.193Z,6.30
2022-10-11T23:11:17.239Z,6.10
2022-10-11T23:13:45.434Z,6.00
2022-10-11T23:16:13.551Z,7.00
2022-10-11T23:18:41.621Z,6.28
2022-10-11T23:21:11.218Z,6.00
2022-10-11T23:23:39.900Z,6.10
2022-10-11T23:26:13.487Z,5.97
2022-10-11T23:28:43.297Z,6.50
2022-10-11T23:31:14.143Z,6.45
2022-10-11T23:33:43.529Z,5.70
2022-10-11T23:36:18.200Z,5.05
2022-10-11T23:38:50.860Z,5.60
2022-10-11T23:41:20.361Z,5.32
2022-10-11T23:43:48.583Z,5.97
2022-10-11T23:46:16.834Z,5.93
2022-10-11T23:48:44.914Z,5.90
2022-10-11T23:51:13.546Z,5.45
2022-10-11T23:53:42.423Z,5.32
2022-10-11T23:56:12.213Z,5.60
2022-10-11T23:58:41.126Z,5.63
